createdAt,value
2018-07-05T01:30:54.728Z,0.00
2018-07-05T01:30:55.304Z,0.00
2018-07-05T01:30:55.899Z,0.00
2018-07-05T01:30:56.500Z,0.00
2018-07-05T01:30:57.104Z,0.00
2018-07-05T01:30:57.698Z,0.00
2018-07-05T01:30:58.298Z,0.00
2018-07-05T01:30:58.897Z,0.00
2018-07-05T01:31:52.381Z,0.00
2018-07-05T01:31:52.954Z,0.00
2018-07-05T01:31:53.553Z,0.00
2018-07-05T01:31:54.154Z,0.00
2018-07-05T01:31:54.753Z,0.00
2018-07-05T01:31:55.354Z,0.00
2018-07-05T01:31:55.953Z,0.00
2018-07-05T01:31:56.553Z,0.00
2018-07-05T01:32:50.034Z,0.00
2018-07-05T01:32:50.606Z,0.00
2018-07-05T01:32:51.205Z,0.00
2018-07-05T01:32:51.808Z,0.00
2018-07-05T01:32:52.404Z,0.00
2018-07-05T01:32:53.006Z,0.00
2018-07-05T01:32:53.605Z,0.00
2018-07-05T01:32:54.204Z,0.00
2018-07-05T01:33:48.709Z,0.00
2018-07-05T01:33:49.282Z,0.00
2018-07-05T01:33:49.882Z,0.00
2018-07-05T01:33:50.483Z,0.00
2018-07-05T01:33:51.082Z,0.00
2018-07-05T01:33:51.681Z,0.00
2018-07-05T01:33:52.282Z,0.00
2018-07-05T01:33:52.883Z,0.00
2018-07-05T01:34:47.389Z,0.00
2018-07-05T01:34:47.960Z,0.00
2018-07-05T01:34:48.560Z,0.00
2018-07-05T01:34:49.162Z,0.00
2018-07-05T01:34:49.759Z,0.00
2018-07-05T01:34:50.363Z,0.00
2018-07-05T01:34:50.959Z,0.00
2018-07-05T01:34:51.562Z,0.00
2018-07-05T01:35:45.043Z,0.00
2018-07-05T01:35:45.615Z,0.00
2018-07-05T01:35:46.212Z,0.00
2018-07-05T01:35:46.812Z,0.00
2018-07-05T01:35:47.413Z,0.00
2018-07-05T01:35:48.012Z,0.00
2018-07-05T01:35:48.612Z,0.00
2018-07-05T01:35:49.213Z,0.00
2018-07-05T01:36:42.697Z,0.00
2018-07-05T01:36:43.265Z,0.00
2018-07-05T01:36:43.865Z,0.00
2018-07-05T01:36:44.465Z,0.00
2018-07-05T01:36:45.064Z,0.00
2018-07-05T01:36:45.665Z,0.00
2018-07-05T01:36:46.265Z,0.00
2018-07-05T01:36:46.866Z,0.00
2018-07-05T01:37:41.369Z,0.00
2018-07-05T01:37:41.941Z,0.00
2018-07-05T01:37:42.548Z,0.00
2018-07-05T01:37:43.139Z,0.00
2018-07-05T01:37:43.740Z,0.00
2018-07-05T01:37:44.340Z,0.00
2018-07-05T01:37:44.939Z,0.00
2018-07-05T01:37:45.538Z,0.00
2018-07-05T01:38:40.047Z,0.00
2018-07-05T01:38:40.616Z,0.00
2018-07-05T01:38:41.216Z,0.00
2018-07-05T01:38:41.816Z,0.00
2018-07-05T01:38:42.417Z,0.00
2018-07-05T01:38:43.015Z,0.00
2018-07-05T01:38:43.615Z,0.00
2018-07-05T01:38:44.215Z,0.00
2018-07-05T01:39:37.699Z,0.00
2018-07-05T01:39:38.272Z,0.00
2018-07-05T01:39:38.869Z,0.00
2018-07-05T01:39:39.469Z,0.00
2018-07-05T01:39:40.071Z,0.00
2018-07-05T01:39:40.672Z,0.00
2018-07-05T01:39:41.270Z,0.00
2018-07-05T01:39:41.868Z,0.00
2018-07-05T01:40:35.385Z,0.00
2018-07-05T01:40:35.943Z,0.00
2018-07-05T01:40:36.521Z,0.00
2018-07-05T01:40:37.130Z,0.00
2018-07-05T01:40:37.722Z,0.00
2018-07-05T01:40:38.319Z,0.00
2018-07-05T01:40:38.918Z,0.00
2018-07-05T01:40:39.524Z,0.00
2018-07-05T01:41:34.027Z,0.00
2018-07-05T01:41:34.596Z,0.00
2018-07-05T01:41:35.197Z,0.00
2018-07-05T01:41:35.796Z,0.00
2018-07-05T01:41:36.398Z,0.00
2018-07-05T01:41:36.996Z,0.00
2018-07-05T01:41:37.596Z,0.00
2018-07-05T01:41:38.196Z,0.00
2018-07-05T01:42:32.705Z,0.00
2018-07-05T01:42:33.273Z,0.00
2018-07-05T01:42:33.873Z,0.00
2018-07-05T01:42:34.471Z,0.00
2018-07-05T01:42:35.073Z,0.00
2018-07-05T01:42:35.671Z,0.00
2018-07-05T01:42:36.271Z,0.00
2018-07-05T01:42:36.873Z,0.00
2018-07-05T01:43:31.384Z,0.00
2018-07-05T01:43:31.946Z,0.00
2018-07-05T01:43:32.549Z,0.00
2018-07-05T01:43:33.147Z,0.00
2018-07-05T01:43:33.748Z,0.00
2018-07-05T01:43:34.348Z,0.00
2018-07-05T01:43:34.950Z,0.00
2018-07-05T01:43:35.547Z,0.00
2018-07-05T01:44:29.030Z,0.00
2018-07-05T01:44:29.600Z,0.00
2018-07-05T01:44:30.200Z,0.00
2018-07-05T01:44:30.804Z,0.00
2018-07-05T01:44:31.400Z,0.00
2018-07-05T01:44:32.000Z,0.00
2018-07-05T01:44:32.601Z,0.00
2018-07-05T01:44:33.201Z,0.00
2018-07-05T01:45:27.705Z,0.00
2018-07-05T01:45:28.276Z,0.00
2018-07-05T01:45:28.897Z,0.00
2018-07-05T01:45:29.476Z,0.00
2018-07-05T01:45:30.076Z,0.00
2018-07-05T01:45:30.678Z,0.00
2018-07-05T01:45:31.275Z,0.00
2018-07-05T01:45:31.876Z,0.00
2018-07-05T01:46:26.380Z,0.00
2018-07-05T01:46:26.950Z,0.00
2018-07-05T01:46:27.552Z,0.00
2018-07-05T01:46:28.151Z,0.00
2018-07-05T01:46:28.750Z,0.00
2018-07-05T01:46:29.351Z,0.00
2018-07-05T01:46:29.950Z,0.00
2018-07-05T01:46:30.553Z,0.00
2018-07-05T01:47:24.032Z,0.00
2018-07-05T01:47:24.603Z,0.00
2018-07-05T01:47:25.203Z,0.00
2018-07-05T01:47:25.804Z,0.00
2018-07-05T01:47:26.404Z,0.00
2018-07-05T01:47:27.003Z,0.00
2018-07-05T01:47:27.603Z,0.00
2018-07-05T01:47:28.207Z,0.00
2018-07-05T01:48:22.709Z,0.00
2018-07-05T01:48:23.279Z,0.00
2018-07-05T01:48:23.885Z,0.00
2018-07-05T01:48:24.480Z,0.00
2018-07-05T01:48:25.078Z,0.00
2018-07-05T01:48:25.681Z,0.00
2018-07-05T01:48:26.279Z,0.00
2018-07-05T01:48:26.879Z,0.00
2018-07-05T01:49:21.385Z,0.00
2018-07-05T01:49:21.954Z,0.00
2018-07-05T01:49:22.555Z,0.00
2018-07-05T01:49:23.154Z,0.00
2018-07-05T01:49:23.755Z,0.00
2018-07-05T01:49:24.355Z,0.00
2018-07-05T01:49:24.956Z,0.00
2018-07-05T01:49:25.555Z,0.00
2018-07-05T01:50:20.061Z,0.00
2018-07-05T01:50:20.635Z,0.00
2018-07-05T01:50:21.229Z,0.00
2018-07-05T01:50:21.832Z,0.00
2018-07-05T01:50:22.429Z,0.00
2018-07-05T01:50:23.030Z,0.00
2018-07-05T01:50:23.628Z,0.00
2018-07-05T01:50:24.229Z,0.00
2018-07-05T01:51:18.736Z,0.00
2018-07-05T01:51:19.307Z,0.00
2018-07-05T01:51:19.908Z,0.00
2018-07-05T01:51:20.504Z,0.00
2018-07-05T01:51:21.106Z,0.00
2018-07-05T01:51:21.706Z,0.00
2018-07-05T01:51:22.305Z,0.00
2018-07-05T01:51:22.904Z,0.00
2018-07-05T01:52:17.415Z,0.00
2018-07-05T01:52:17.989Z,0.00
2018-07-05T01:52:18.582Z,0.00
2018-07-05T01:52:19.181Z,0.00
2018-07-05T01:52:19.782Z,0.00
2018-07-05T01:52:20.382Z,0.00
2018-07-05T01:52:20.982Z,0.00
2018-07-05T01:52:21.583Z,0.00
2018-07-05T01:53:16.089Z,0.00
2018-07-05T01:53:16.659Z,0.00
2018-07-05T01:53:17.258Z,0.00
2018-07-05T01:53:17.858Z,0.00
2018-07-05T01:53:18.460Z,0.00
2018-07-05T01:53:19.058Z,0.00
2018-07-05T01:53:19.660Z,0.00
2018-07-05T01:53:20.255Z,0.00
2018-07-05T01:54:14.763Z,0.00
2018-07-05T01:54:15.333Z,0.00
2018-07-05T01:54:15.934Z,0.00
2018-07-05T01:54:16.535Z,0.00
2018-07-05T01:54:17.135Z,0.00
2018-07-05T01:54:17.733Z,0.00
2018-07-05T01:54:18.334Z,0.00
2018-07-05T01:54:18.933Z,0.00
2018-07-05T01:55:13.439Z,0.00
2018-07-05T01:55:14.011Z,0.00
2018-07-05T01:55:14.608Z,0.00
2018-07-05T01:55:15.208Z,0.00
2018-07-05T01:55:15.808Z,0.00
2018-07-05T01:55:16.409Z,0.00
2018-07-05T01:55:17.007Z,0.00
2018-07-05T01:55:17.607Z,0.00
2018-07-05T01:56:11.091Z,0.00
2018-07-05T01:56:11.661Z,0.00
2018-07-05T01:56:12.262Z,0.00
2018-07-05T01:56:12.863Z,0.00
2018-07-05T01:56:13.464Z,0.00
2018-07-05T01:56:14.061Z,0.00
2018-07-05T01:56:14.661Z,0.00
2018-07-05T01:56:15.262Z,0.00
2018-07-05T01:57:08.745Z,0.00
2018-07-05T01:57:09.313Z,0.00
2018-07-05T01:57:09.913Z,0.00
2018-07-05T01:57:10.514Z,0.00
2018-07-05T01:57:11.113Z,0.00
2018-07-05T01:57:11.713Z,0.00
2018-07-05T01:57:12.312Z,0.00
2018-07-05T01:57:12.913Z,0.00
2018-07-05T01:58:06.398Z,0.00
2018-07-05T01:58:06.964Z,0.00
2018-07-05T01:58:07.567Z,0.00
2018-07-05T01:58:08.165Z,0.00
2018-07-05T01:58:08.765Z,0.00
2018-07-05T01:58:09.365Z,0.00
2018-07-05T01:58:09.968Z,0.00
2018-07-05T01:58:10.565Z,0.00
2018-07-05T01:59:04.051Z,0.00
2018-07-05T01:59:04.617Z,0.00
2018-07-05T01:59:05.217Z,0.00
2018-07-05T01:59:05.816Z,0.00
2018-07-05T01:59:06.418Z,0.00
2018-07-05T01:59:07.017Z,0.00
2018-07-05T01:59:07.616Z,0.00
2018-07-05T01:59:08.217Z,0.00
2018-07-05T02:00:01.698Z,0.00
2018-07-05T02:00:02.270Z,0.00
2018-07-05T02:00:02.868Z,0.00
2018-07-05T02:00:03.472Z,0.00
2018-07-05T02:00:04.068Z,0.00
2018-07-05T02:00:04.668Z,0.00
2018-07-05T02:00:05.268Z,0.00
2018-07-05T02:00:05.871Z,0.00
2018-07-05T02:01:00.374Z,0.00
2018-07-05T02:01:00.943Z,0.00
2018-07-05T02:01:01.575Z,0.00
2018-07-05T02:01:02.145Z,0.00
2018-07-05T02:01:02.742Z,0.00
2018-07-05T02:01:03.344Z,0.00
2018-07-05T02:01:03.944Z,0.00
2018-07-05T02:01:04.545Z,0.00
2018-07-05T02:01:59.049Z,0.00
2018-07-05T02:01:59.620Z,0.00
2018-07-05T02:02:00.220Z,0.00
2018-07-05T02:02:00.821Z,0.00
2018-07-05T02:02:01.420Z,0.00
2018-07-05T02:02:02.020Z,0.00
2018-07-05T02:02:02.621Z,0.00
2018-07-05T02:02:03.222Z,0.00
2018-07-05T02:02:56.704Z,0.00
2018-07-05T02:02:57.271Z,0.00
2018-07-05T02:02:57.872Z,0.00
2018-07-05T02:02:58.472Z,0.00
2018-07-05T02:02:59.071Z,0.00
2018-07-05T02:02:59.672Z,0.00
2018-07-05T02:03:00.273Z,0.00
2018-07-05T02:03:00.872Z,0.00
2018-07-05T02:03:54.354Z,0.00
2018-07-05T02:03:54.924Z,0.00
2018-07-05T02:03:55.523Z,0.00
2018-07-05T02:03:56.124Z,0.00
2018-07-05T02:03:56.723Z,0.00
2018-07-05T02:03:57.324Z,0.00
2018-07-05T02:03:57.923Z,0.00
2018-07-05T02:03:58.524Z,0.00
2018-07-05T02:04:52.005Z,0.00
2018-07-05T02:04:52.577Z,0.00
2018-07-05T02:04:53.175Z,0.00
2018-07-05T02:04:53.812Z,0.00
2018-07-05T02:04:54.376Z,0.00
2018-07-05T02:04:54.975Z,0.00
2018-07-05T02:04:55.577Z,0.00
2018-07-05T02:04:56.175Z,0.00
2018-07-05T02:05:49.655Z,0.00
2018-07-05T02:05:50.228Z,0.00
2018-07-05T02:05:50.827Z,0.00
2018-07-05T02:05:51.427Z,0.00
2018-07-05T02:05:52.027Z,0.00
2018-07-05T02:05:52.627Z,0.00
2018-07-05T02:05:53.227Z,0.00
2018-07-05T02:05:53.827Z,0.00
2018-07-05T02:06:48.333Z,0.00
2018-07-05T02:06:48.901Z,0.00
2018-07-05T02:06:49.503Z,0.00
2018-07-05T02:06:50.103Z,0.00
2018-07-05T02:06:50.706Z,0.00
2018-07-05T02:06:51.303Z,0.00
2018-07-05T02:06:51.902Z,0.00
2018-07-05T02:06:52.504Z,0.00
2018-07-05T02:07:45.984Z,0.00
2018-07-05T02:07:46.555Z,0.00
2018-07-05T02:07:47.156Z,0.00
2018-07-05T02:07:47.753Z,0.00
2018-07-05T02:07:48.355Z,0.00
2018-07-05T02:07:48.954Z,0.00
2018-07-05T02:07:49.554Z,0.00
2018-07-05T02:07:50.154Z,0.00
2018-07-05T02:08:44.660Z,0.00
2018-07-05T02:08:45.228Z,0.00
2018-07-05T02:08:45.830Z,0.00
2018-07-05T02:08:46.433Z,0.00
2018-07-05T02:08:47.031Z,0.00
2018-07-05T02:08:47.629Z,0.00
2018-07-05T02:08:48.229Z,0.00
2018-07-05T02:08:48.829Z,0.00
2018-07-05T02:09:42.312Z,0.00
2018-07-05T02:09:42.883Z,0.00
2018-07-05T02:09:43.492Z,0.00
2018-07-05T02:09:44.082Z,0.00
2018-07-05T02:09:44.682Z,0.00
2018-07-05T02:09:45.282Z,0.00
2018-07-05T02:09:45.882Z,0.00
2018-07-05T02:09:46.482Z,0.00
2018-07-05T02:10:39.965Z,0.00
2018-07-05T02:10:40.534Z,0.00
2018-07-05T02:10:41.136Z,0.00
2018-07-05T02:10:41.734Z,0.00
2018-07-05T02:10:42.334Z,0.00
2018-07-05T02:10:42.933Z,0.00
2018-07-05T02:10:43.532Z,0.00
2018-07-05T02:10:44.135Z,0.00
2018-07-05T02:11:37.615Z,4.00
2018-07-05T02:11:38.185Z,4.00
2018-07-05T02:11:38.786Z,4.00
2018-07-05T02:11:39.385Z,4.00
2018-07-05T02:11:39.989Z,4.00
2018-07-05T02:11:40.585Z,4.00
2018-07-05T02:11:41.185Z,4.00
2018-07-05T02:11:41.786Z,4.00
2018-07-05T02:12:36.291Z,4.00
2018-07-05T02:12:36.861Z,4.00
2018-07-05T02:12:37.462Z,4.00
2018-07-05T02:12:38.061Z,4.00
2018-07-05T02:12:38.661Z,4.00
2018-07-05T02:12:39.261Z,4.00
2018-07-05T02:12:39.860Z,4.00
2018-07-05T02:12:40.460Z,4.00
2018-07-05T02:13:33.943Z,0.00
2018-07-05T02:13:34.518Z,0.00
2018-07-05T02:13:35.142Z,0.00
2018-07-05T02:13:35.714Z,0.00
2018-07-05T02:13:36.313Z,0.00
2018-07-05T02:13:36.912Z,0.00
2018-07-05T02:13:37.513Z,0.00
2018-07-05T02:13:38.115Z,0.00
2018-07-05T02:14:32.632Z,0.00
2018-07-05T02:14:33.281Z,0.00
2018-07-05T02:14:33.893Z,0.00
2018-07-05T02:14:34.434Z,0.00
2018-07-05T02:14:34.995Z,0.00
2018-07-05T02:14:35.648Z,0.00
2018-07-05T02:14:36.244Z,0.00
2018-07-05T02:14:36.874Z,0.00
2018-07-05T02:15:31.293Z,0.00
2018-07-05T02:15:31.864Z,0.00
2018-07-05T02:15:32.463Z,0.00
2018-07-05T02:15:33.064Z,0.00
2018-07-05T02:15:33.665Z,0.00
2018-07-05T02:15:34.264Z,0.00
2018-07-05T02:15:34.863Z,0.00
2018-07-05T02:15:35.465Z,0.00
2018-07-05T02:16:28.947Z,4.00
2018-07-05T02:16:29.516Z,4.00
2018-07-05T02:16:30.116Z,4.00
2018-07-05T02:16:30.724Z,4.00
2018-07-05T02:16:31.317Z,4.00
2018-07-05T02:16:31.924Z,4.00
2018-07-05T02:16:32.516Z,4.00
2018-07-05T02:16:33.117Z,4.00
2018-07-05T02:17:26.598Z,4.00
2018-07-05T02:17:27.176Z,4.00
2018-07-05T02:17:27.769Z,4.00
2018-07-05T02:17:28.369Z,4.00
2018-07-05T02:17:28.968Z,4.00
2018-07-05T02:17:29.568Z,4.00
2018-07-05T02:17:30.169Z,4.00
2018-07-05T02:17:30.768Z,4.00
2018-07-05T02:18:25.274Z,0.00
2018-07-05T02:18:25.844Z,0.00
2018-07-05T02:18:26.442Z,0.00
2018-07-05T02:18:27.047Z,0.00
2018-07-05T02:18:27.644Z,0.00
2018-07-05T02:18:28.243Z,0.00
2018-07-05T02:18:28.843Z,0.00
2018-07-05T02:18:29.444Z,0.00
2018-07-05T02:19:23.949Z,4.00
2018-07-05T02:19:24.519Z,4.00
2018-07-05T02:19:25.119Z,4.00
2018-07-05T02:19:25.719Z,4.00
2018-07-05T02:19:26.318Z,4.00
2018-07-05T02:19:26.917Z,4.00
2018-07-05T02:19:27.519Z,4.00
2018-07-05T02:19:28.119Z,4.00
2018-07-05T02:20:21.603Z,4.00
2018-07-05T02:20:22.171Z,4.00
2018-07-05T02:20:22.772Z,4.00
2018-07-05T02:20:23.371Z,4.00
2018-07-05T02:20:23.971Z,4.00
2018-07-05T02:20:24.571Z,4.00
2018-07-05T02:20:25.172Z,4.00
2018-07-05T02:20:25.772Z,4.00
2018-07-05T02:21:19.252Z,4.00
2018-07-05T02:21:19.824Z,4.00
2018-07-05T02:21:20.425Z,4.00
2018-07-05T02:21:21.022Z,4.00
2018-07-05T02:21:21.623Z,4.00
2018-07-05T02:21:22.223Z,4.00
2018-07-05T02:21:22.823Z,4.00
2018-07-05T02:21:23.423Z,4.00
2018-07-05T02:22:17.929Z,4.00
2018-07-05T02:22:18.497Z,4.00
2018-07-05T02:22:19.097Z,4.00
2018-07-05T02:22:19.699Z,4.00
2018-07-05T02:22:20.297Z,4.00
2018-07-05T02:22:20.898Z,4.00
2018-07-05T02:22:21.498Z,4.00
2018-07-05T02:22:22.098Z,4.00
2018-07-05T02:23:15.582Z,4.00
2018-07-05T02:23:16.150Z,4.00
2018-07-05T02:23:16.751Z,4.00
2018-07-05T02:23:17.349Z,4.00
2018-07-05T02:23:17.950Z,4.00
2018-07-05T02:23:18.550Z,4.00
2018-07-05T02:23:19.154Z,4.00
2018-07-05T02:23:19.750Z,4.00
2018-07-05T02:24:13.232Z,4.00
2018-07-05T02:24:13.802Z,4.00
2018-07-05T02:24:14.402Z,4.00
2018-07-05T02:24:15.007Z,4.00
2018-07-05T02:24:15.602Z,4.00
2018-07-05T02:24:16.203Z,4.00
2018-07-05T02:24:16.804Z,4.00
2018-07-05T02:24:17.402Z,4.00
2018-07-05T02:25:10.887Z,4.00
2018-07-05T02:25:11.454Z,4.00
2018-07-05T02:25:12.053Z,4.00
2018-07-05T02:25:12.655Z,4.00
2018-07-05T02:25:13.254Z,4.00
2018-07-05T02:25:13.854Z,4.00
2018-07-05T02:25:14.454Z,4.00
2018-07-05T02:25:15.055Z,4.00
2018-07-05T02:26:08.537Z,8.00
2018-07-05T02:26:09.105Z,8.00
2018-07-05T02:26:09.705Z,4.00
2018-07-05T02:26:10.307Z,8.00
2018-07-05T02:26:10.906Z,8.00
2018-07-05T02:26:11.505Z,4.00
2018-07-05T02:26:12.107Z,8.00
2018-07-05T02:26:12.706Z,4.00
2018-07-05T02:27:07.212Z,8.00
2018-07-05T02:27:07.782Z,8.00
2018-07-05T02:27:08.381Z,8.00
2018-07-05T02:27:08.981Z,8.00
2018-07-05T02:27:09.620Z,8.00
2018-07-05T02:27:10.182Z,8.00
2018-07-05T02:27:10.781Z,8.00
2018-07-05T02:27:11.382Z,8.00
2018-07-05T02:28:05.891Z,4.00
2018-07-05T02:28:06.457Z,4.00
2018-07-05T02:28:07.056Z,4.00
2018-07-05T02:28:07.656Z,4.00
2018-07-05T02:28:08.256Z,4.00
2018-07-05T02:28:08.855Z,4.00
2018-07-05T02:28:09.456Z,4.00
2018-07-05T02:28:10.057Z,4.00
2018-07-05T02:29:03.543Z,8.00
2018-07-05T02:29:04.107Z,8.00
2018-07-05T02:29:04.707Z,8.00
2018-07-05T02:29:05.311Z,4.00
2018-07-05T02:29:05.908Z,4.00
2018-07-05T02:29:06.506Z,4.00
2018-07-05T02:29:07.107Z,4.00
2018-07-05T02:29:07.708Z,8.00
2018-07-05T02:30:02.224Z,8.00
2018-07-05T02:30:02.785Z,8.00
2018-07-05T02:30:03.391Z,8.00
2018-07-05T02:30:03.985Z,8.00
2018-07-05T02:30:04.588Z,8.00
2018-07-05T02:30:05.185Z,8.00
2018-07-05T02:30:05.782Z,8.00
2018-07-05T02:30:06.390Z,8.00
2018-07-05T02:30:59.868Z,8.00
2018-07-05T02:31:00.436Z,8.00
2018-07-05T02:31:01.036Z,8.00
2018-07-05T02:31:01.643Z,8.00
2018-07-05T02:31:02.238Z,8.00
2018-07-05T02:31:02.838Z,8.00
2018-07-05T02:31:03.436Z,8.00
2018-07-05T02:31:04.037Z,8.00
2018-07-05T02:31:57.518Z,12.00
2018-07-05T02:31:58.088Z,8.00
2018-07-05T02:31:58.687Z,8.00
2018-07-05T02:31:59.290Z,12.00
2018-07-05T02:31:59.889Z,8.00
2018-07-05T02:32:00.488Z,8.00
2018-07-05T02:32:01.088Z,8.00
2018-07-05T02:32:01.688Z,8.00
2018-07-05T02:32:55.169Z,8.00
2018-07-05T02:32:55.741Z,8.00
2018-07-05T02:32:56.382Z,8.00
2018-07-05T02:32:56.940Z,12.00
2018-07-05T02:32:57.541Z,8.00
2018-07-05T02:32:58.145Z,12.00
2018-07-05T02:32:58.738Z,12.00
2018-07-05T02:32:59.338Z,12.00
2018-07-05T02:33:52.823Z,12.00
2018-07-05T02:33:53.392Z,12.00
2018-07-05T02:33:53.991Z,12.00
2018-07-05T02:33:54.592Z,12.00
2018-07-05T02:33:55.192Z,12.00
2018-07-05T02:33:55.792Z,12.00
2018-07-05T02:33:56.391Z,12.00
2018-07-05T02:33:56.992Z,12.00
2018-07-05T02:34:51.500Z,12.00
2018-07-05T02:34:52.066Z,12.00
2018-07-05T02:34:52.668Z,12.00
2018-07-05T02:34:53.283Z,12.00
2018-07-05T02:34:53.866Z,12.00
2018-07-05T02:34:54.465Z,12.00
2018-07-05T02:34:55.067Z,12.00
2018-07-05T02:34:55.666Z,12.00
2018-07-05T02:35:50.171Z,12.00
2018-07-05T02:35:50.743Z,12.00
2018-07-05T02:35:51.341Z,12.00
2018-07-05T02:35:51.942Z,12.00
2018-07-05T02:35:52.543Z,12.00
2018-07-05T02:35:53.142Z,16.00
2018-07-05T02:35:53.743Z,16.00
2018-07-05T02:35:54.350Z,16.00
2018-07-05T02:36:47.825Z,16.00
2018-07-05T02:36:48.395Z,16.00
2018-07-05T02:36:48.994Z,16.00
2018-07-05T02:36:49.595Z,16.00
2018-07-05T02:36:50.202Z,16.00
2018-07-05T02:36:50.792Z,16.00
2018-07-05T02:36:51.396Z,16.00
2018-07-05T02:36:51.994Z,16.00
2018-07-05T02:37:45.477Z,16.00
2018-07-05T02:37:46.045Z,16.00
2018-07-05T02:37:46.647Z,16.00
2018-07-05T02:37:47.248Z,16.00
2018-07-05T02:37:47.847Z,16.00
2018-07-05T02:37:48.446Z,16.00
2018-07-05T02:37:49.047Z,16.00
2018-07-05T02:37:49.646Z,16.00
2018-07-05T02:38:43.128Z,16.00
2018-07-05T02:38:43.699Z,16.00
2018-07-05T02:38:44.298Z,16.00
2018-07-05T02:38:44.899Z,16.00
2018-07-05T02:38:45.499Z,16.00
2018-07-05T02:38:46.099Z,16.00
2018-07-05T02:38:46.697Z,16.00
2018-07-05T02:38:47.299Z,16.00
2018-07-05T02:39:41.804Z,20.00
2018-07-05T02:39:42.375Z,20.00
2018-07-05T02:39:42.972Z,16.00
2018-07-05T02:39:43.576Z,16.00
2018-07-05T02:39:44.173Z,20.00
2018-07-05T02:39:44.774Z,16.00
2018-07-05T02:39:45.374Z,16.00
2018-07-05T02:39:45.973Z,16.00
2018-07-05T02:40:40.479Z,20.00
2018-07-05T02:40:41.049Z,20.00
2018-07-05T02:40:41.651Z,20.00
2018-07-05T02:40:42.250Z,20.00
2018-07-05T02:40:42.849Z,20.00
2018-07-05T02:40:43.450Z,20.00
2018-07-05T02:40:44.049Z,20.00
2018-07-05T02:40:44.652Z,20.00
2018-07-05T02:41:39.155Z,24.00
2018-07-05T02:41:39.725Z,24.00
2018-07-05T02:41:40.325Z,24.00
2018-07-05T02:41:40.926Z,24.00
2018-07-05T02:41:41.525Z,24.00
2018-07-05T02:41:42.124Z,24.00
2018-07-05T02:41:42.726Z,24.00
2018-07-05T02:41:43.325Z,24.00
2018-07-05T02:42:36.807Z,28.00
2018-07-05T02:42:37.379Z,24.00
2018-07-05T02:42:37.979Z,24.00
2018-07-05T02:42:38.577Z,24.00
2018-07-05T02:42:39.176Z,24.00
2018-07-05T02:42:39.778Z,24.00
2018-07-05T02:42:40.377Z,24.00
2018-07-05T02:42:40.977Z,24.00
2018-07-05T02:43:34.459Z,28.00
2018-07-05T02:43:35.038Z,28.00
2018-07-05T02:43:35.630Z,28.00
2018-07-05T02:43:36.229Z,28.00
2018-07-05T02:43:36.832Z,28.00
2018-07-05T02:43:37.429Z,28.00
2018-07-05T02:43:38.029Z,28.00
2018-07-05T02:43:38.629Z,28.00
2018-07-05T02:44:33.134Z,32.00
2018-07-05T02:44:33.704Z,32.00
2018-07-05T02:44:34.302Z,32.00
2018-07-05T02:44:34.907Z,32.00
2018-07-05T02:44:35.504Z,32.00
2018-07-05T02:44:36.103Z,32.00
2018-07-05T02:44:36.705Z,32.00
2018-07-05T02:44:37.306Z,32.00
2018-07-05T02:45:31.810Z,36.00
2018-07-05T02:45:32.381Z,36.00
2018-07-05T02:45:32.982Z,36.00
2018-07-05T02:45:33.580Z,36.00
2018-07-05T02:45:34.178Z,36.00
2018-07-05T02:45:34.779Z,36.00
2018-07-05T02:45:35.413Z,36.00
2018-07-05T02:45:35.980Z,36.00
2018-07-05T02:46:29.462Z,40.00
2018-07-05T02:46:30.033Z,40.00
2018-07-05T02:46:30.633Z,36.00
2018-07-05T02:46:31.233Z,40.00
2018-07-05T02:46:31.833Z,36.00
2018-07-05T02:46:32.431Z,36.00
2018-07-05T02:46:33.033Z,40.00
2018-07-05T02:46:33.633Z,40.00
2018-07-05T02:47:27.114Z,40.00
2018-07-05T02:47:27.684Z,40.00
2018-07-05T02:47:28.283Z,44.00
2018-07-05T02:47:28.885Z,44.00
2018-07-05T02:47:29.485Z,44.00
2018-07-05T02:47:30.083Z,44.00
2018-07-05T02:47:30.684Z,44.00
2018-07-05T02:47:31.284Z,44.00
2018-07-05T02:48:25.788Z,44.00
2018-07-05T02:48:26.360Z,44.00
2018-07-05T02:48:26.959Z,48.00
2018-07-05T02:48:27.559Z,48.00
2018-07-05T02:48:28.159Z,48.00
2018-07-05T02:48:28.759Z,48.00
2018-07-05T02:48:29.358Z,48.00
2018-07-05T02:48:29.963Z,48.00
2018-07-05T02:49:23.441Z,52.00
2018-07-05T02:49:24.012Z,52.00
2018-07-05T02:49:24.613Z,52.00
2018-07-05T02:49:25.212Z,52.00
2018-07-05T02:49:25.812Z,52.00
2018-07-05T02:49:26.416Z,52.00
2018-07-05T02:49:27.012Z,56.00
2018-07-05T02:49:27.615Z,56.00
2018-07-05T02:50:22.116Z,60.00
2018-07-05T02:50:22.686Z,60.00
2018-07-05T02:50:23.286Z,60.00
2018-07-05T02:50:23.885Z,60.00
2018-07-05T02:50:24.484Z,56.00
2018-07-05T02:50:25.084Z,60.00
2018-07-05T02:50:25.686Z,60.00
2018-07-05T02:50:26.287Z,60.00
2018-07-05T02:51:20.792Z,68.00
2018-07-05T02:51:21.362Z,68.00
2018-07-05T02:51:21.962Z,68.00
2018-07-05T02:51:22.564Z,68.00
2018-07-05T02:51:23.166Z,68.00
2018-07-05T02:51:23.761Z,68.00
2018-07-05T02:51:24.359Z,68.00
2018-07-05T02:51:24.962Z,68.00
2018-07-05T02:52:19.467Z,76.00
2018-07-05T02:52:20.038Z,72.00
2018-07-05T02:52:20.637Z,72.00
2018-07-05T02:52:21.239Z,72.00
2018-07-05T02:52:21.838Z,72.00
2018-07-05T02:52:22.439Z,72.00
2018-07-05T02:52:23.039Z,72.00
2018-07-05T02:52:23.638Z,76.00
2018-07-05T02:53:17.121Z,80.00
2018-07-05T02:53:17.691Z,80.00
2018-07-05T02:53:18.290Z,80.00
2018-07-05T02:53:18.889Z,80.00
2018-07-05T02:53:19.489Z,80.00
2018-07-05T02:53:20.090Z,80.00
2018-07-05T02:53:20.690Z,80.00
2018-07-05T02:53:21.289Z,80.00
2018-07-05T02:54:14.772Z,88.00
2018-07-05T02:54:15.342Z,84.00
2018-07-05T02:54:15.944Z,88.00
2018-07-05T02:54:16.541Z,88.00
2018-07-05T02:54:17.145Z,88.00
2018-07-05T02:54:17.740Z,88.00
2018-07-05T02:54:18.341Z,88.00
2018-07-05T02:54:18.945Z,88.00
2018-07-05T02:55:13.449Z,92.00
2018-07-05T02:55:14.017Z,92.00
2018-07-05T02:55:14.617Z,92.00
2018-07-05T02:55:15.220Z,92.00
2018-07-05T02:55:15.816Z,92.00
2018-07-05T02:55:16.417Z,92.00
2018-07-05T02:55:17.016Z,92.00
2018-07-05T02:55:17.616Z,92.00
2018-07-05T02:56:11.099Z,100.00
2018-07-05T02:56:11.670Z,100.00
2018-07-05T02:56:12.269Z,100.00
2018-07-05T02:56:12.870Z,100.00
2018-07-05T02:56:13.469Z,100.00
2018-07-05T02:56:14.069Z,100.00
2018-07-05T02:56:14.668Z,100.00
2018-07-05T02:56:15.268Z,100.00
2018-07-05T02:57:09.774Z,104.00
2018-07-05T02:57:10.343Z,104.00
2018-07-05T02:57:10.946Z,104.00
2018-07-05T02:57:11.546Z,104.00
2018-07-05T02:57:12.145Z,108.00
2018-07-05T02:57:12.743Z,104.00
2018-07-05T02:57:13.346Z,108.00
2018-07-05T02:57:13.959Z,108.00
2018-07-05T02:58:08.451Z,112.00
2018-07-05T02:58:09.022Z,112.00
2018-07-05T02:58:09.620Z,112.00
2018-07-05T02:58:10.226Z,116.00
2018-07-05T02:58:10.821Z,112.00
2018-07-05T02:58:11.434Z,112.00
2018-07-05T02:58:12.024Z,112.00
2018-07-05T02:58:12.631Z,112.00
2018-07-05T02:59:07.126Z,116.00
2018-07-05T02:59:07.696Z,124.00
2018-07-05T02:59:08.295Z,120.00
2018-07-05T02:59:08.896Z,120.00
2018-07-05T02:59:09.496Z,120.00
2018-07-05T02:59:10.095Z,120.00
2018-07-05T02:59:10.695Z,120.00
2018-07-05T02:59:11.296Z,120.00
2018-07-05T03:00:05.804Z,128.00
2018-07-05T03:00:06.371Z,128.00
2018-07-05T03:00:06.977Z,128.00
2018-07-05T03:00:07.574Z,128.00
2018-07-05T03:00:08.171Z,132.00
2018-07-05T03:00:08.772Z,128.00
2018-07-05T03:00:09.371Z,132.00
2018-07-05T03:00:09.973Z,132.00
2018-07-05T03:01:03.453Z,140.00
2018-07-05T03:01:04.025Z,136.00
2018-07-05T03:01:04.623Z,136.00
2018-07-05T03:01:05.224Z,140.00
2018-07-05T03:01:05.824Z,140.00
2018-07-05T03:01:06.429Z,140.00
2018-07-05T03:01:07.024Z,140.00
2018-07-05T03:01:07.625Z,140.00
2018-07-05T03:02:02.129Z,148.00
2018-07-05T03:02:02.704Z,148.00
2018-07-05T03:02:03.305Z,152.00
2018-07-05T03:02:03.901Z,152.00
2018-07-05T03:02:04.499Z,152.00
2018-07-05T03:02:05.100Z,152.00
2018-07-05T03:02:05.701Z,152.00
2018-07-05T03:02:06.299Z,152.00
2018-07-05T03:03:00.805Z,164.00
2018-07-05T03:03:01.376Z,164.00
2018-07-05T03:03:01.975Z,164.00
2018-07-05T03:03:02.576Z,168.00
2018-07-05T03:03:03.175Z,168.00
2018-07-05T03:03:03.774Z,168.00
2018-07-05T03:03:04.373Z,168.00
2018-07-05T03:03:04.974Z,168.00
2018-07-05T03:03:59.482Z,176.00
2018-07-05T03:04:00.052Z,176.00
2018-07-05T03:04:00.650Z,176.00
2018-07-05T03:04:01.252Z,180.00
2018-07-05T03:04:01.857Z,180.00
2018-07-05T03:04:02.449Z,180.00
2018-07-05T03:04:03.050Z,180.00
2018-07-05T03:04:03.651Z,180.00
2018-07-05T03:04:58.156Z,188.00
2018-07-05T03:04:58.734Z,192.00
2018-07-05T03:04:59.327Z,192.00
2018-07-05T03:04:59.927Z,192.00
2018-07-05T03:05:00.527Z,192.00
2018-07-05T03:05:01.126Z,192.00
2018-07-05T03:05:01.726Z,188.00
2018-07-05T03:05:02.369Z,188.00
2018-07-05T03:05:55.810Z,204.00
2018-07-05T03:05:56.379Z,204.00
2018-07-05T03:05:56.979Z,204.00